Time;durP1;ratioP1;P1;durP2;ratioP2;P2;SDS_P1;SDS_P2;PMS_P1;PMS_P2;Temp;Humidity;BMP_temperature;BMP_pressure;BME280_temperature;BME280_humidity;BME280_pressure;Samples;Min_cycle;Max_cycle;Signal;HPM_P1;HPM_P2
2022/10/06 00:01:08;;;;;;;14.67;8.47;;;;;;;10.35;80.35;101587.39;1504172;86;21965;-81
2022/10/06 00:03:37;;;;;;;11.43;6.37;;;;;;;10.36;80.25;101592.23;1504670;86;21572;-81
2022/10/06 00:06:06;;;;;;;10.87;7.60;;;;;;;10.36;80.19;101590.42;1510550;85;21581;-82
2022/10/06 00:08:37;;;;;;;11.73;6.73;;;;;;;10.38;80.19;101592.45;1509012;85;21344;-81
2022/10/06 00:11:06;;;;;;;10.08;6.08;;;;;;;10.36;80.35;101586.45;1517553;85;21447;-82
2022/10/06 00:13:34;;;;;;;10.67;5.50;;;;;;;10.34;80.09;101584.39;1514723;86;22384;-81
2022/10/06 00:16:04;;;;;;;9.53;4.97;;;;;;;10.32;80.09;101582.33;1503536;86;21738;-82
2022/10/06 00:18:31;;;;;;;10.80;5.57;;;;;;;10.29;80.29;101578.60;1482137;85;22327;-82
2022/10/06 00:21:01;;;;;;;12.00;5.80;;;;;;;10.26;80.35;101578.80;1496753;86;21388;-83
2022/10/06 00:23:29;;;;;;;13.83;6.50;;;;;;;10.25;80.41;101577.13;1496403;86;21389;-82
2022/10/06 00:25:57;;;;;;;15.43;6.30;;;;;;;10.23;80.29;101575.56;1512467;86;21507;-81
2022/10/06 00:28:25;;;;;;;9.20;5.47;;;;;;;10.22;80.29;101581.83;1509175;86;21567;-81
2022/10/06 00:30:54;;;;;;;18.33;7.37;;;;;;;10.19;80.25;101580.25;1487922;86;22262;-80
2022/10/06 00:33:23;;;;;;;10.97;5.67;;;;;;;10.15;80.57;101584.07;1471585;88;21403;-82
2022/10/06 00:35:57;;;;;;;15.53;6.97;;;;;;;10.12;80.58;101576.37;1496417;87;21522;-80
2022/10/06 00:38:24;;;;;;;9.97;5.87;;;;;;;10.07;80.57;101570.58;1491181;86;21506;-80
2022/10/06 00:40:51;;;;;;;10.63;5.93;;;;;;;10.05;80.50;101571.20;1509781;85;21410;-80
2022/10/06 00:43:52;;;;;;;10.47;5.73;;;;;;;10.04;80.61;101568.17;1504839;86;23294;-81
2022/10/06 00:46:33;;;;;;;12.07;6.87;;;;;;;10.01;80.58;101568.41;1483601;87;22271;-80
2022/10/06 00:49:21;;;;;;;8.70;5.97;;;;;;;9.98;80.69;101568.16;1490686;86;21337;-80
2022/10/06 00:52:01;;;;;;;11.40;6.33;;;;;;;9.98;80.68;101563.34;1503906;85;21591;-80
2022/10/06 00:54:31;;;;;;;11.60;5.65;;;;;;;9.93;80.66;101566.36;1508071;86;21654;-80
2022/10/06 00:56:58;;;;;;;14.30;6.23;;;;;;;9.85;81.05;101564.28;1507591;85;21676;-80
2022/10/06 00:59:25;;;;;;;9.40;6.43;;;;;;;9.82;81.19;101563.19;1516443;85;21581;-81
2022/10/06 01:02:23;;;;;;;10.27;5.73;;;;;;;9.80;81.25;101561.13;1505497;86;21625;-81
2022/10/06 01:04:55;;;;;;;19.20;7.17;;;;;;;9.78;81.18;101552.95;1485901;86;21516;-81
2022/10/06 01:07:26;;;;;;;10.47;5.63;;;;;;;9.72;81.47;101551.60;1481576;88;21870;-81
2022/10/06 01:09:56;;;;;;;7.92;5.50;;;;;;;9.69;81.54;101555.80;1487675;87;21492;-81
2022/10/06 01:12:27;;;;;;;18.42;7.42;;;;;;;9.64;81.55;101552.68;1490999;86;21419;-80
2022/10/06 01:14:55;;;;;;;12.47;6.15;;;;;;;9.60;81.64;101559.13;1489065;86;21462;-81
2022/10/06 01:17:53;;;;;;;10.27;5.77;;;;;;;9.55;81.96;101561.27;1491159;86;21418;-81
2022/10/06 01:20:22;;;;;;;10.50;6.40;;;;;;;9.49;82.20;101562.11;1473276;85;21425;-81
2022/10/06 01:23:04;;;;;;;11.13;5.73;;;;;;;9.44;82.00;101557.63;1497674;86;21492;-80
2022/10/06 01:25:33;;;;;;;11.07;6.63;;;;;;;9.41;82.12;101557.86;1485954;87;21522;-80
2022/10/06 01:28:04;;;;;;;28.17;7.07;;;;;;;9.41;82.46;101559.18;1492665;87;21352;-80
2022/10/06 01:30:40;;;;;;;15.13;6.20;;;;;;;9.38;82.53;101558.08;1490881;86;21535;-82
2022/10/06 01:33:07;;;;;;;12.73;7.10;;;;;;;9.34;82.79;101554.45;1491026;86;21595;-81
2022/10/06 01:35:34;;;;;;;8.10;6.50;;;;;;;9.31;83.14;101556.83;1491947;86;21418;-80
2022/10/06 01:38:01;;;;;;;8.90;5.77;;;;;;;9.30;83.08;101556.48;1489795;87;22364;-81
2022/10/06 01:40:28;;;;;;;11.37;6.27;;;;;;;9.29;83.27;101560.53;1491809;86;22387;-81
2022/10/06 01:42:55;;;;;;;10.87;6.33;;;;;;;9.27;83.38;101558.02;1474860;86;21575;-80
2022/10/06 01:45:22;;;;;;;10.20;6.57;;;;;;;9.27;83.43;101561.98;1494151;86;21432;-81
2022/10/06 01:47:50;;;;;;;9.07;6.00;;;;;;;9.27;83.30;101558.02;1485772;87;21455;-80
2022/10/06 01:50:17;;;;;;;9.50;6.63;;;;;;;9.28;83.38;101558.38;1501715;86;21330;-80
2022/10/06 01:52:44;;;;;;;10.20;6.70;;;;;;;9.30;83.45;101561.76;1504956;85;21391;-80
2022/10/06 01:55:11;;;;;;;9.60;6.13;;;;;;;9.29;83.36;101564.02;1477142;87;21412;-80
2022/10/06 01:57:40;;;;;;;12.10;6.77;;;;;;;9.30;83.39;101565.72;1499671;86;21300;-80
2022/10/06 02:00:09;;;;;;;10.80;6.77;;;;;;;9.29;83.41;101567.98;1456262;88;21434;-80
2022/10/06 02:02:36;;;;;;;11.20;6.67;;;;;;;9.30;83.23;101568.36;1497966;87;22371;-79
2022/10/06 02:05:05;;;;;;;9.67;6.30;;;;;;;9.29;83.26;101571.94;1483725;86;22278;-80
2022/10/06 02:07:35;;;;;;;10.23;6.37;;;;;;;9.27;83.46;101569.91;1461016;88;22329;-80
2022/10/06 02:10:04;;;;;;;13.57;7.63;;;;;;;9.23;83.67;101572.39;1489477;87;21419;-80
2022/10/06 02:12:32;;;;;;;12.20;6.00;;;;;;;9.23;83.71;101575.03;1503074;86;21397;-81
2022/10/06 02:14:59;;;;;;;11.13;6.57;;;;;;;9.22;83.67;101576.00;1501359;86;21345;-81
2022/10/06 02:17:26;;;;;;;13.27;6.57;;;;;;;9.21;83.58;101579.60;1470902;86;21479;-79
2022/10/06 02:19:53;;;;;;;10.27;6.07;;;;;;;9.23;83.70;101577.67;1517806;86;21419;-80
2022/10/06 02:22:20;;;;;;;14.37;7.07;;;;;;;9.26;83.66;101574.80;1512704;85;21484;-79
2022/10/06 02:24:47;;;;;;;11.23;6.03;;;;;;;9.28;83.56;101577.35;1488268;87;21447;-80
2022/10/06 02:27:14;;;;;;;8.70;6.20;;;;;;;9.27;83.53;101575.20;1493236;87;21565;-80
2022/10/06 02:29:41;;;;;;;13.87;6.53;;;;;;;9.24;83.61;101574.09;1508080;85;21417;-79
2022/10/06 02:32:09;;;;;;;11.77;6.40;;;;;;;9.22;83.52;101572.03;1495447;87;21418;-80
2022/10/06 02:34:36;;;;;;;11.07;6.37;;;;;;;9.23;83.60;101571.91;1502058;85;21382;-80
2022/10/06 02:37:04;;;;;;;13.30;6.93;;;;;;;9.25;83.58;101573.13;1508883;85;22484;-80
2022/10/06 02:39:31;;;;;;;9.97;6.30;;;;;;;9.28;83.53;101566.78;1497731;86;21470;-80
2022/10/06 02:41:58;;;;;;;9.13;5.93;;;;;;;9.29;83.42;101569.78;1517018;85;22460;-81
2022/10/06 02:44:25;;;;;;;14.83;7.07;;;;;;;9.25;83.47;101566.53;1515334;84;21395;-80
2022/10/06 02:46:52;;;;;;;13.63;7.40;;;;;;;9.24;83.51;101572.77;1515677;86;21543;-79
2022/10/06 02:49:19;;;;;;;9.67;6.50;;;;;;;9.24;83.46;101577.58;1519921;86;21424;-80
2022/10/06 02:51:46;;;;;;;8.53;6.10;;;;;;;9.24;83.53;101580.22;1509491;86;21381;-80
2022/10/06 02:54:14;;;;;;;8.23;5.83;;;;;;;9.21;83.62;101582.25;1494538;87;21426;-79
2022/10/06 02:56:41;;;;;;;8.73;5.77;;;;;;;9.19;83.59;101577.05;1497291;86;21625;-81
2022/10/06 02:59:08;;;;;;;8.13;5.87;;;;;;;9.21;83.74;101582.25;1496006;87;21545;-82
2022/10/06 03:01:35;;;;;;;7.37;5.07;;;;;;;9.23;83.45;101582.47;1494805;86;21522;-81
2022/10/06 03:04:02;;;;;;;10.30;6.63;;;;;;;9.24;83.29;101577.58;1506661;87;21514;-81
2022/10/06 03:06:30;;;;;;;10.63;6.80;;;;;;;9.24;83.16;101579.37;1499881;85;22283;-80
2022/10/06 03:09:01;;;;;;;15.47;7.03;;;;;;;9.23;83.17;101577.67;1514742;84;22310;-80
2022/10/06 03:11:35;;;;;;;16.10;5.97;;;;;;;9.26;83.17;101581.41;1518501;85;21441;-80
2022/10/06 03:14:03;;;;;;;10.80;5.33;;;;;;;9.25;83.10;101576.61;1464491;89;22432;-81
2022/10/06 03:16:37;;;;;;;9.90;6.63;;;;;;;9.23;82.98;101585.11;1516509;85;21389;-80
2022/10/06 03:19:05;;;;;;;11.03;5.97;;;;;;;9.20;82.95;101581.86;1496409;86;21433;-79
2022/10/06 03:21:36;;;;;;;8.67;5.33;;;;;;;9.18;82.91;101578.02;1495466;86;21477;-80
2022/10/06 03:24:05;;;;;;;7.47;4.80;;;;;;;9.15;83.21;101580.89;1498791;85;21380;-81
2022/10/06 03:26:36;;;;;;;12.57;6.17;;;;;;;9.11;83.16;101582.04;1494692;87;22254;-81
2022/10/06 03:29:05;;;;;;;9.70;6.03;;;;;;;9.06;83.37;101586.80;1497417;85;21499;-80
2022/10/06 03:31:32;;;;;;;11.17;5.20;;;;;;;9.02;83.57;101586.19;1496223;85;21366;-80
2022/10/06 03:34:00;;;;;;;7.83;4.90;;;;;;;9.00;83.51;101582.80;1480337;85;21449;-80
2022/10/06 03:36:31;;;;;;;9.93;5.00;;;;;;;9.01;83.50;101588.47;1501209;86;21577;-79
2022/10/06 03:39:00;;;;;;;8.20;5.50;;;;;;;9.02;83.44;101590.63;1495124;86;21611;-80
2022/10/06 03:41:32;;;;;;;8.23;5.57;;;;;;;8.98;83.25;101594.45;1467536;87;21584;-80
2022/10/06 03:44:00;;;;;;;9.40;5.90;;;;;;;8.93;83.41;101593.92;1470793;87;22261;-80
2022/10/06 03:46:31;;;;;;;7.37;5.17;;;;;;;8.86;83.62;101593.52;1498200;85;21388;-79
2022/10/06 03:48:59;;;;;;;10.03;6.17;;;;;;;8.78;84.03;101590.58;1497421;85;22210;-79
2022/10/06 03:51:37;;;;;;;12.50;5.67;;;;;;;8.76;84.26;101593.78;1515499;86;21432;-79
2022/10/06 03:54:06;;;;;;;7.70;5.17;;;;;;;8.72;84.49;101593.64;1512937;83;22373;-79
2022/10/06 03:56:37;;;;;;;23.93;6.93;;;;;;;8.67;84.46;101598.39;1531622;85;22269;-79
2022/10/06 03:59:08;;;;;;;7.97;4.90;;;;;;;8.63;85.01;101597.77;1489834;87;21396;-81
2022/10/06 04:01:41;;;;;;;8.60;4.97;;;;;;;8.58;85.19;101591.48;1499213;84;21397;-81
2022/10/06 04:04:10;;;;;;;8.00;5.03;;;;;;;8.55;85.22;101591.70;1496761;85;21360;-81
2022/10/06 04:06:41;;;;;;;11.40;7.10;;;;;;;8.51;85.41;101582.77;1487476;87;21404;-80
2022/10/06 04:09:12;;;;;;;6.65;4.97;;;;;;;8.48;85.47;101591.73;1489414;85;22224;-80
2022/10/06 04:11:41;;;;;;;9.57;5.83;;;;;;;8.45;85.52;101594.58;1501001;85;21418;-80
2022/10/06 04:14:12;;;;;;;9.67;4.47;;;;;;;8.43;85.86;101601.78;1500375;85;22299;-81
2022/10/06 04:16:43;;;;;;;7.80;5.62;;;;;;;8.35;85.95;101600.11;1493744;85;21491;-82
2022/10/06 04:19:13;;;;;;;9.90;5.33;;;;;;;8.27;86.24;101601.09;1478891;85;21382;-80
2022/10/06 04:21:43;;;;;;;9.80;5.57;;;;;;;8.19;86.27;101604.72;1477216;87;21544;-81
2022/10/06 04:24:11;;;;;;;6.93;4.50;;;;;;;8.18;86.10;101604.36;1487412;85;21617;-81
2022/10/06 04:26:45;;;;;;;6.20;4.57;;;;;;;8.13;86.24;101608.13;1494054;87;21617;-81
2022/10/06 04:29:13;;;;;;;8.93;5.20;;;;;;;8.07;86.01;101610.34;1490118;87;21680;-80
2022/10/06 04:31:41;;;;;;;10.20;5.50;;;;;;;8.02;86.07;101605.37;1496141;87;21432;-80
2022/10/06 04:34:15;;;;;;;6.33;4.73;;;;;;;7.97;86.48;101607.94;1512823;86;21292;-81
2022/10/06 04:36:41;;;;;;;5.50;4.40;;;;;;;7.93;86.86;101603.34;1517633;85;21441;-79
2022/10/06 04:39:11;;;;;;;8.03;5.30;;;;;;;7.90;86.84;101607.51;1517190;85;21463;-80
2022/10/06 04:41:41;;;;;;;10.57;5.43;;;;;;;7.88;87.07;101606.75;1495014;85;22322;-79
2022/10/06 04:44:09;;;;;;;8.47;4.73;;;;;;;7.85;87.65;101599.05;1499995;85;22431;-79
2022/10/06 04:46:36;;;;;;;6.87;4.97;;;;;;;7.86;87.73;101599.44;1485615;87;22542;-80
2022/10/06 04:49:03;;;;;;;8.37;5.80;;;;;;;7.87;87.99;101598.48;1497965;85;22550;-82
2022/10/06 04:51:30;;;;;;;6.70;4.67;;;;;;;7.87;88.16;101596.69;1497573;84;21389;-81
2022/10/06 04:53:57;;;;;;;11.17;5.33;;;;;;;7.87;88.29;101593.22;1483087;85;21410;-79
2022/10/06 04:56:28;;;;;;;10.60;5.03;;;;;;;7.90;88.30;101599.59;1514808;84;21463;-80
2022/10/06 04:58:57;;;;;;;9.45;5.40;;;;;;;7.93;88.70;101590.17;1512477;85;22210;-81
2022/10/06 05:01:29;;;;;;;8.03;5.03;;;;;;;7.98;88.63;101597.78;1510617;85;21329;-81
2022/10/06 05:03:59;;;;;;;8.37;5.20;;;;;;;8.01;88.67;101590.98;1460144;88;21389;-80
2022/10/06 05:06:31;;;;;;;15.95;6.83;;;;;;;8.03;88.59;101597.84;1475230;87;21433;-80
2022/10/06 05:09:06;;;;;;;10.33;5.87;;;;;;;8.06;88.21;101601.59;1489221;85;22265;-78
2022/10/06 05:11:34;;;;;;;14.43;7.10;;;;;;;8.08;88.30;101602.31;1516229;85;21579;-78
2022/10/06 05:14:01;;;;;;;11.20;6.40;;;;;;;8.09;88.24;101597.43;1528108;84;21559;-81
2022/10/06 05:16:30;;;;;;;8.57;5.50;;;;;;;8.12;88.26;101598.55;1514756;85;21625;-81
2022/10/06 05:18:57;;;;;;;13.50;6.40;;;;;;;8.16;88.60;101600.97;1503397;85;21403;-81
2022/10/06 05:21:28;;;;;;;13.63;6.27;;;;;;;8.20;88.34;101603.76;1498103;86;21485;-79
2022/10/06 05:23:55;;;;;;;11.68;5.78;;;;;;;8.26;88.82;101596.78;1479137;87;21463;-77
2022/10/06 05:26:26;;;;;;;9.93;6.07;;;;;;;8.36;89.24;101599.98;1472949;85;21650;-80
2022/10/06 05:28:53;;;;;;;13.98;5.42;;;;;;;8.47;88.98;101601.92;1508761;85;21551;-81
2022/10/06 05:31:30;;;;;;;12.37;6.00;;;;;;;8.56;88.87;101603.92;1486337;87;21529;-81
2022/10/06 05:33:56;;;;;;;7.93;5.53;;;;;;;8.67;88.72;101607.16;1499703;87;21499;-80
2022/10/06 05:36:29;;;;;;;6.90;5.00;;;;;;;8.80;88.71;101615.05;1492165;87;21521;-80
2022/10/06 05:38:57;;;;;;;12.83;6.10;;;;;;;8.92;88.63;101614.21;1482483;87;21528;-79
2022/10/06 05:41:28;;;;;;;6.73;4.57;;;;;;;9.06;88.47;101614.53;1493288;87;21668;-81
2022/10/06 05:43:55;;;;;;;;;;;;;;;9.18;88.21;101622.09;1493884;87;22284;-80
2022/10/06 05:46:30;;;;;;;9.90;6.13;;;;;;;9.31;88.25;101618.08;1488061;86;20906;-80
2022/10/06 05:49:01;;;;;;;13.00;5.70;;;;;;;9.44;87.80;101622.86;1493606;87;21565;-79
2022/10/06 05:51:31;;;;;;;14.17;6.07;;;;;;;9.60;87.71;101619.92;1485057;87;21478;-80
2022/10/06 05:54:00;;;;;;;8.65;4.95;;;;;;;9.76;87.64;101625.78;1501949;87;21441;-82
2022/10/06 05:56:29;;;;;;;9.57;5.07;;;;;;;9.93;87.44;101623.22;1500648;87;21425;-80
2022/10/06 05:58:58;;;;;;;13.83;6.47;;;;;;;10.11;87.06;101627.60;1494781;87;21351;-80
2022/10/06 06:01:33;;;;;;;13.50;6.87;;;;;;;10.28;86.84;101625.88;1492713;87;22320;-81
2022/10/06 06:04:07;;;;;;;11.13;6.37;;;;;;;10.46;86.36;101630.24;1484107;87;21667;-81
2022/10/06 06:06:43;;;;;;;23.27;9.17;;;;;;;10.64;86.10;101629.30;1496570;87;21955;-80
2022/10/06 06:09:15;;;;;;;18.53;8.53;;;;;;;10.84;85.67;101632.56;1489288;87;21633;-80
2022/10/06 06:11:46;;;;;;;14.90;8.17;;;;;;;11.04;85.09;101632.81;1486716;86;22427;-80
2022/10/06 06:14:17;;;;;;;18.75;9.60;;;;;;;11.22;84.56;101635.34;1490702;87;21359;-80
2022/10/06 06:16:45;;;;;;;15.20;9.60;;;;;;;11.39;83.97;101641.08;1491035;87;21565;-81
2022/10/06 06:19:13;;;;;;;13.70;6.37;;;;;;;11.52;82.73;101647.09;1487875;87;22291;-82
2022/10/06 06:21:40;;;;;;;10.77;6.33;;;;;;;11.62;81.96;101648.02;1496915;86;21433;-81
2022/10/06 06:24:07;;;;;;;11.57;6.43;;;;;;;11.70;80.13;101649.56;1494402;87;21573;-80
2022/10/06 06:26:37;;;;;;;12.37;5.40;;;;;;;11.80;80.32;101647.51;1497991;86;21410;-81
2022/10/06 06:29:05;;;;;;;24.83;6.90;;;;;;;11.95;80.49;101656.39;1484345;87;21790;-80
2022/10/06 06:31:38;;;;;;;11.63;6.00;;;;;;;12.09;79.96;101656.58;1490212;86;21447;-79
2022/10/06 06:34:06;;;;;;;10.57;6.00;;;;;;;12.21;79.71;101651.22;1490547;87;21373;-78
2022/10/06 06:36:39;;;;;;;9.70;5.40;;;;;;;12.34;78.84;101654.51;1500312;87;21559;-81
2022/10/06 06:39:10;;;;;;;13.93;5.97;;;;;;;12.45;78.84;101649.14;1491169;86;21440;-80
2022/10/06 06:41:41;;;;;;;6.40;4.90;;;;;;;12.59;77.69;101652.80;1482610;86;22387;-81
2022/10/06 06:44:10;;;;;;;10.27;5.70;;;;;;;12.65;77.08;101646.95;1497247;87;21373;-80
2022/10/06 06:46:39;;;;;;;9.90;5.17;;;;;;;12.74;76.85;101652.45;1493918;86;21433;-81
2022/10/06 06:49:06;;;;;;;17.20;5.10;;;;;;;12.84;76.93;101652.86;1485460;86;21528;-81
2022/10/06 06:51:39;;;;;;;5.67;4.33;;;;;;;12.93;76.32;101651.22;1485434;87;21418;-82
2022/10/06 06:54:08;;;;;;;10.03;4.57;;;;;;;13.07;76.58;101656.19;1490930;86;21432;-81
2022/10/06 06:56:35;;;;;;;8.93;4.77;;;;;;;13.21;76.14;101652.81;1406614;87;21332;-80
2022/10/06 06:59:07;;;;;;;6.13;4.40;;;;;;;13.37;75.76;101661.63;1409480;87;21507;-81
2022/10/06 07:01:36;;;;;;;14.57;5.27;;;;;;;13.46;75.22;101661.64;1494535;86;21478;-81
2022/10/06 07:04:05;;;;;;;11.30;4.33;;;;;;;13.58;75.04;101655.74;1492461;86;22293;-81
2022/10/06 07:06:32;;;;;;;9.63;5.13;;;;;;;13.73;74.86;101661.50;1532028;86;23533;-81
2022/10/06 07:09:00;;;;;;;9.63;4.77;;;;;;;13.87;74.30;101659.77;1499000;86;21492;-80
2022/10/06 07:11:34;;;;;;;7.27;4.70;;;;;;;14.02;73.80;101660.69;1493667;86;21605;-81
2022/10/06 07:14:05;;;;;;;6.83;4.50;;;;;;;14.16;73.73;101665.09;1489939;86;22300;-81
2022/10/06 07:25:05;;;;;;;12.93;4.40;;;;;;;14.73;71.12;101663.84;1575092;86;21497;-80
2022/10/06 07:27:43;;;;;;;17.27;4.53;;;;;;;14.89;70.93;101665.89;1591351;86;22190;-81
2022/10/06 07:30:20;;;;;;;6.30;4.70;;;;;;;15.06;70.81;101664.28;1570426;85;21613;-81
2022/10/06 07:32:55;;;;;;;9.33;4.37;;;;;;;15.23;70.41;101664.84;1528226;85;21513;-82
2022/10/06 07:35:23;;;;;;;12.30;5.17;;;;;;;15.36;69.37;101665.80;1504679;86;21513;-81
2022/10/06 07:37:52;;;;;;;13.77;5.37;;;;;;;15.50;68.83;101664.47;1513290;86;21419;-81
2022/10/06 07:40:19;;;;;;;10.20;5.53;;;;;;;15.56;67.77;101666.53;1502015;86;21485;-81
2022/10/06 07:42:48;;;;;;;11.00;4.33;;;;;;;15.72;67.90;101666.75;1506466;86;21859;-82
2022/10/06 07:45:40;;;;;;;9.17;4.23;;;;;;;15.86;66.59;101663.23;1512423;86;21582;-81
2022/10/06 07:47:58;;;;;;;8.30;4.90;;;;;;;15.97;66.46;101673.18;1496800;86;21389;-82
2022/10/06 07:50:26;;;;;;;9.93;4.60;;;;;;;16.12;65.93;101668.64;1514017;86;21405;-82
2022/10/06 07:52:53;;;;;;;9.60;4.93;;;;;;;16.33;65.94;101672.31;1502531;86;21479;-82
2022/10/06 07:55:20;;;;;;;6.77;4.77;;;;;;;16.48;64.89;101673.41;1505582;86;22350;-82
2022/10/06 07:57:49;;;;;;;10.83;5.27;;;;;;;16.50;63.83;101670.09;1510516;86;21456;-82
2022/10/06 08:00:21;;;;;;;10.03;4.90;;;;;;;16.59;64.08;101667.81;1506142;86;22492;-82
2022/10/06 08:02:46;;;;;;;23.63;7.07;;;;;;;16.63;61.82;101673.20;1515528;86;22335;-82
2022/10/06 08:05:13;;;;;;;7.17;4.37;;;;;;;16.69;62.76;101674.41;1510375;86;21608;-82
2022/10/06 08:07:40;;;;;;;14.63;4.70;;;;;;;16.80;61.97;101674.66;1506122;86;22424;-82
2022/10/06 08:10:08;;;;;;;5.83;4.03;;;;;;;16.91;62.54;101678.40;1510110;86;21464;-81
2022/10/06 08:12:39;;;;;;;7.53;4.93;;;;;;;17.04;62.25;101678.82;1507576;86;22408;-80
2022/10/06 08:15:10;;;;;;;7.53;4.90;;;;;;;17.18;62.10;101679.23;1484717;86;21419;-83
2022/10/06 08:17:38;;;;;;;12.47;5.10;;;;;;;17.25;60.56;101676.23;1509244;86;21820;-84
2022/10/06 08:20:10;;;;;;;8.37;4.83;;;;;;;17.35;61.30;101685.81;1512844;86;21577;-86
2022/10/06 08:22:38;;;;;;;11.73;4.80;;;;;;;17.39;60.06;101683.65;1508811;86;21420;-83
2022/10/06 08:25:08;;;;;;;9.20;5.20;;;;;;;17.47;59.68;101687.70;1509887;86;21448;-82
2022/10/06 08:27:37;;;;;;;7.40;5.53;;;;;;;17.41;55.95;101684.84;1511412;86;22462;-83
2022/10/06 08:30:06;;;;;;;12.97;5.17;;;;;;;17.52;58.45;101682.70;1492894;86;22236;-83
2022/10/06 08:32:33;;;;;;;10.77;4.83;;;;;;;17.64;59.14;101683.73;1507183;86;21706;-82
2022/10/06 08:35:02;;;;;;;7.30;4.63;;;;;;;17.77;59.09;101689.44;1512990;86;21559;-83
2022/10/06 08:37:29;;;;;;;9.08;4.50;;;;;;;17.93;59.24;101684.16;1516101;86;21478;-82
2022/10/06 08:39:56;;;;;;;7.35;5.00;;;;;;;18.04;57.63;101681.16;1515943;86;21384;-82
2022/10/06 08:42:47;;;;;;;7.37;5.05;;;;;;;18.11;58.16;101680.48;1505563;86;21426;-82
2022/10/06 08:45:34;;;;;;;13.22;3.70;;;;;;;18.14;57.03;101678.81;1510338;86;21680;-80
2022/10/06 08:48:06;;;;;;;8.93;4.05;;;;;;;18.23;58.23;101687.18;1529805;84;21434;-79
2022/10/06 08:50:38;;;;;;;5.45;4.03;;;;;;;18.40;57.03;101676.80;1530755;85;21714;-79
2022/10/06 08:53:20;;;;;;;10.10;5.60;;;;;;;18.54;57.77;101681.15;1501962;85;22499;-79
2022/10/06 08:55:53;;;;;;;8.35;4.00;;;;;;;18.62;56.52;101677.13;1522105;85;21492;-79
2022/10/06 08:58:34;;;;;;;18.37;4.95;;;;;;;18.69;55.53;101679.44;1478041;88;21634;-79
2022/10/06 09:01:24;;;;;;;7.08;4.60;;;;;;;18.69;55.12;101683.46;1536713;84;21435;-78
2022/10/06 09:04:00;;;;;;;6.92;4.92;;;;;;;18.71;54.90;101671.56;1534063;84;21604;-81
2022/10/06 09:06:36;;;;;;;9.05;4.00;;;;;;;18.84;55.26;101675.06;1542041;84;22451;-79
2022/10/06 09:09:38;;;;;;;6.92;4.83;;;;;;;19.03;55.60;101674.36;1544674;84;21383;-80
2022/10/06 09:12:55;;;;;;;6.47;4.25;;;;;;;19.25;52.88;101672.75;1536644;84;21515;-80
2022/10/06 09:15:32;;;;;;;10.95;4.17;;;;;;;19.50;54.29;101672.14;1533253;84;22255;-80
2022/10/06 09:18:24;;;;;;;10.23;5.22;;;;;;;19.89;53.17;101676.64;1528706;84;22315;-80
2022/10/06 09:20:57;;;;;;;9.80;4.70;;;;;;;20.28;51.07;101673.31;1533569;84;21937;-80
2022/10/06 09:26:21;;;;;;;10.30;4.20;;;;;;;21.29;50.28;101671.58;1525699;84;21538;-80
2022/10/06 09:28:50;;;;;;;6.35;4.00;;;;;;;21.74;47.72;101675.86;1528844;85;21635;-81
2022/10/06 09:31:22;;;;;;;7.33;4.05;;;;;;;22.00;45.57;101683.38;1516574;85;21391;-80
2022/10/06 09:33:54;;;;;;;5.65;4.03;;;;;;;22.08;46.03;101671.13;1518410;85;21347;-80
2022/10/06 09:36:22;;;;;;;7.30;3.27;;;;;;;22.41;46.36;101678.72;1520164;85;21502;-80
2022/10/06 09:38:54;;;;;;;7.37;4.17;;;;;;;22.69;46.44;101679.21;1521669;85;22840;-80
2022/10/06 09:41:41;;;;;;;7.45;3.83;;;;;;;22.84;45.51;101675.88;1525693;85;21443;-81
2022/10/06 09:44:28;;;;;;;8.45;3.50;;;;;;;22.71;44.89;101677.98;1517948;85;21406;-81
2022/10/06 09:46:55;;;;;;;6.08;3.30;;;;;;;22.79;43.83;101677.01;1531750;85;21491;-79
2022/10/06 09:49:25;;;;;;;8.00;3.80;;;;;;;22.91;44.17;101671.89;1501457;85;22345;-80
2022/10/06 09:52:15;;;;;;;8.35;3.30;;;;;;;23.10;43.79;101678.44;1515961;85;21429;-80
2022/10/06 09:54:43;;;;;;;7.97;3.45;;;;;;;23.32;43.80;101677.30;1523679;85;21449;-82
2022/10/06 09:57:21;;;;;;;5.55;3.30;;;;;;;23.48;42.68;101672.56;1524556;85;21377;-84
2022/10/06 09:59:48;;;;;;;4.70;3.67;;;;;;;23.41;41.93;101671.20;1518670;85;21538;-84
2022/10/06 10:02:38;;;;;;;6.00;4.00;;;;;;;23.46;42.10;101666.55;1508411;85;22306;-84
2022/10/06 10:05:19;;;;;;;7.70;3.12;;;;;;;23.55;42.42;101667.51;1520869;85;21354;-83
2022/10/06 10:08:08;;;;;;;9.23;3.98;;;;;;;23.58;42.30;101670.33;1524511;85;21487;-84
2022/10/06 10:10:36;;;;;;;3.30;2.73;;;;;;;23.64;42.19;101671.69;1523228;85;21406;-85
2022/10/06 10:13:21;;;;;;;8.30;3.58;;;;;;;23.74;42.47;101667.29;1515428;85;21917;-83
2022/10/06 10:16:01;;;;;;;9.98;3.02;;;;;;;23.90;42.24;101666.58;1519445;85;21533;-85
2022/10/06 10:18:30;;;;;;;7.97;4.37;;;;;;;24.05;42.08;101664.02;1517572;85;21384;-84
2022/10/06 10:21:07;;;;;;;6.50;3.20;;;;;;;24.04;40.42;101666.91;1521897;85;21421;-85
2022/10/06 10:23:42;;;;;;;6.37;3.10;;;;;;;24.00;41.76;101666.50;1519786;85;21392;-85
2022/10/06 10:26:30;;;;;;;8.43;2.67;;;;;;;24.11;41.26;101661.00;1523142;85;21517;-89
2022/10/06 10:29:29;;;;;;;9.65;3.10;;;;;;;24.16;41.16;101650.36;1523839;85;22309;-81
2022/10/06 10:32:19;;;;;;;4.15;2.47;;;;;;;24.13;39.47;101652.66;1519127;85;21955;-83
2022/10/06 10:35:07;;;;;;;8.08;3.52;;;;;;;23.84;40.97;101654.19;1521228;85;21549;-83
2022/10/06 10:37:40;;;;;;;14.07;3.72;;;;;;;23.83;40.47;101645.78;1515210;85;22553;-86
2022/10/06 10:40:22;;;;;;;6.30;3.70;;;;;;;23.94;39.97;101651.59;1519299;85;21391;-86
2022/10/06 10:43:07;;;;;;;6.70;2.95;;;;;;;24.06;39.92;101645.38;1521974;85;22419;-80
2022/10/06 10:45:48;;;;;;;5.80;2.85;;;;;;;24.00;39.67;101646.74;1496616;85;22847;-80
2022/10/06 10:48:35;;;;;;;9.23;3.67;;;;;;;23.91;40.19;101650.66;1498456;87;21507;-80
2022/10/06 10:51:10;;;;;;;53.60;5.80;;;;;;;23.99;40.28;101654.52;1531596;85;21584;-80
2022/10/06 10:54:10;;;;;;;5.95;3.52;;;;;;;24.07;40.39;101656.50;1502525;85;21391;-79
2022/10/06 10:56:37;;;;;;;6.45;3.70;;;;;;;24.15;40.10;101659.53;1526277;85;21420;-80
2022/10/06 10:59:29;;;;;;;7.95;3.25;;;;;;;24.19;39.56;101647.77;1510095;85;21385;-80
2022/10/06 11:02:21;;;;;;;11.00;3.20;;;;;;;24.21;39.77;101651.11;1487209;87;21477;-80
2022/10/06 11:04:56;;;;;;;5.47;2.90;;;;;;;24.26;40.01;101638.62;1466181;87;21628;-79
2022/10/06 11:07:37;;;;;;;10.72;3.22;;;;;;;24.36;40.34;101638.72;1487047;87;21516;-78
2022/10/06 11:10:10;;;;;;;9.70;3.15;;;;;;;24.28;39.39;101636.55;1489965;87;21569;-79
2022/10/06 11:13:15;;;;;;;9.70;3.37;;;;;;;24.31;40.10;101643.39;1485385;87;21492;-79
2022/10/06 11:16:28;;;;;;;8.25;2.92;;;;;;;24.18;39.67;101638.00;1490335;87;21403;-78
2022/10/06 11:19:29;;;;;;;7.72;3.08;;;;;;;24.12;39.73;101638.31;1488064;87;21395;-79
2022/10/06 11:22:10;;;;;;;4.78;2.75;;;;;;;24.17;39.99;101637.17;1488695;87;21632;-81
2022/10/06 11:24:46;;;;;;;10.75;3.08;;;;;;;24.32;40.05;101637.78;1479551;87;22118;-81
2022/10/06 11:27:37;;;;;;;4.87;3.02;;;;;;;24.57;39.76;101635.82;1482325;87;21551;-81
2022/10/06 11:30:23;;;;;;;8.10;3.10;;;;;;;24.92;39.54;101620.63;1474298;88;21537;-82
2022/10/06 11:33:15;;;;;;;12.98;3.20;;;;;;;24.93;38.06;101624.98;1479666;88;21462;-81
2022/10/06 11:35:45;;;;;;;8.75;3.22;;;;;;;25.06;38.70;101615.96;1477159;88;21448;-81
2022/10/06 11:38:30;;;;;;;7.78;3.17;;;;;;;25.19;38.71;101616.77;1479407;88;22461;-82
2022/10/06 11:41:11;;;;;;;11.03;3.15;;;;;;;25.30;37.88;101614.44;1477340;88;21478;-81
2022/10/06 11:44:14;;;;;;;5.95;2.85;;;;;;;25.47;37.88;101612.06;1472843;88;22365;-80
2022/10/06 11:46:53;;;;;;;7.22;3.20;;;;;;;25.30;37.70;101615.27;1477531;88;21595;-82
2022/10/06 11:49:46;;;;;;;5.35;2.90;;;;;;;24.93;38.37;101610.09;1479768;88;22399;-82
2022/10/06 11:52:19;;;;;;;4.92;2.95;;;;;;;24.27;38.38;101605.11;1470151;88;21455;-82
2022/10/06 11:54:52;;;;;;;11.65;2.85;;;;;;;23.99;38.79;101596.39;1471621;88;21441;-80
2022/10/06 11:57:28;;;;;;;5.20;2.25;;;;;;;23.87;39.22;101607.81;1495024;88;21596;-81
2022/10/06 12:00:09;;;;;;;6.17;2.80;;;;;;;23.74;39.54;101596.19;1473150;88;21456;-82
2022/10/06 12:02:39;;;;;;;4.78;3.40;;;;;;;23.54;39.50;101598.83;1479391;88;21530;-82